createdAt,value
2019-03-27T00:00:52.333Z,43.74
2019-03-27T00:15:56.595Z,43.75
2019-03-27T00:30:50.504Z,43.86
2019-03-27T00:45:53.431Z,44.05
2019-03-27T01:00:56.183Z,44.30
2019-03-27T01:15:50.446Z,44.32
2019-03-27T01:30:50.646Z,44.20
2019-03-27T01:45:53.221Z,44.41
2019-03-27T02:00:56.529Z,44.32
2019-03-27T02:16:05.897Z,44.53
2019-03-27T02:45:53.533Z,44.85
2019-03-27T03:00:50.541Z,45.18
2019-03-27T03:15:50.615Z,44.94
2019-03-27T03:30:52.430Z,45.35
2019-03-27T03:45:54.915Z,45.76
2019-03-27T04:00:54.230Z,46.30
2019-03-27T04:15:59.749Z,46.80
2019-03-27T04:30:51.751Z,46.80
2019-03-27T04:45:50.603Z,44.53
2019-03-27T05:00:50.544Z,40.57
2019-03-27T05:15:50.919Z,37.51
2019-03-27T05:30:50.784Z,35.38
2019-03-27T05:45:54.419Z,33.62
2019-03-27T06:00:50.920Z,32.11
2019-03-27T06:15:50.903Z,30.55
2019-03-27T06:30:54.869Z,28.98
2019-03-27T06:45:50.736Z,27.49
2019-03-27T07:00:50.640Z,27.28
2019-03-27T07:15:50.629Z,26.20
2019-03-27T07:30:50.497Z,24.71
2019-03-27T07:45:50.388Z,24.75
2019-03-27T08:00:51.170Z,25.48
2019-03-27T08:15:51.146Z,25.47
2019-03-27T08:45:54.294Z,24.32
2019-03-27T09:00:53.347Z,23.74
2019-03-27T09:15:50.826Z,22.91
2019-03-27T09:30:50.855Z,21.46
2019-03-27T09:45:50.799Z,19.55
2019-03-27T10:00:55.750Z,18.88
2019-03-27T10:30:56.355Z,17.91
2019-03-27T10:45:51.012Z,23.35
2019-03-27T11:00:50.220Z,19.27
2019-03-27T11:15:51.088Z,18.64
2019-03-27T11:30:50.627Z,19.89
2019-03-27T11:45:50.495Z,20.47
2019-03-27T12:00:54.869Z,20.99
2019-03-27T12:15:50.383Z,21.20
2019-03-27T12:30:50.828Z,21.55
2019-03-27T12:45:50.777Z,22.44
2019-03-27T13:30:50.925Z,23.00
2019-03-27T13:45:51.643Z,23.11
2019-03-27T14:00:50.841Z,23.36
2019-03-27T14:15:54.472Z,23.89
2019-03-27T14:30:55.481Z,23.93
2019-03-27T14:45:50.309Z,24.30
2019-03-27T15:00:51.159Z,24.34
2019-03-27T15:15:50.953Z,25.12
2019-03-27T15:30:56.394Z,25.70
2019-03-27T15:45:50.398Z,26.55
2019-03-27T16:00:50.257Z,27.49
2019-03-27T16:15:50.216Z,28.20
2019-03-27T16:30:50.583Z,28.74
2019-03-27T16:45:50.623Z,29.38
2019-03-27T17:00:53.818Z,29.95
2019-03-27T17:30:57.673Z,31.38
2019-03-27T18:00:55.450Z,32.41
2019-03-27T18:15:51.211Z,32.93
2019-03-27T18:30:56.516Z,33.53
2019-03-27T18:45:50.847Z,34.16
2019-03-27T19:00:53.693Z,34.95
2019-03-27T19:15:57.175Z,35.25
2019-03-27T19:30:54.604Z,36.02
2019-03-27T19:45:52.968Z,36.98
2019-03-27T20:00:53.961Z,37.88
2019-03-27T20:15:53.609Z,38.56
2019-03-27T20:30:53.814Z,39.41
2019-03-27T21:00:54.119Z,38.89
2019-03-27T21:15:51.040Z,38.46
2019-03-27T21:31:00.691Z,40.15
2019-03-27T21:45:54.988Z,39.32
2019-03-27T22:00:51.345Z,40.84
2019-03-27T22:15:51.237Z,41.22
2019-03-27T22:30:52.648Z,41.38
2019-03-27T22:45:59.913Z,41.37
2019-03-27T23:00:53.904Z,41.13
2019-03-27T23:15:54.390Z,41.01
2019-03-27T23:30:55.433Z,40.94
2019-03-27T23:45:54.230Z,41.05
